Kirk, Texas
Current Conditions -  °F | °C
As of 4:55 PM on Saturday 25 Oct 2014 (Local Time) from KCNW Reporting Station
Clear Clear  
Wind Chill: 86°   Ceiling: Unl
Heat Index: 86°   Visibility: 10mi
Dew Point: 59°   Wind: 6mph
Humidity: 40%   Direction: 190°S
Pressure: 30.07"   Gusts: NA
Location:  31.5521°N, 96.8628°W
Report Text: KCNW 252155Z 19005KT 10SM SKC 30/15 A3007
Loading
Personal Weather Stations






























Interactive Weather Map
Tropical Storm Tracking
New forecast layout! Learn more

10-Day Weather Forecast

Advertisements
Track Severe Weather on mobile